Terminal Aerodrome Forecast
Issued by NWS

Home | Current Version | Previous Version | Graphics & Text | Print | Product List | Glossary On
Versions: 1 2 3 4 5 6 7 8 9 10 11 12 13
000
FTUS45 KGGW 162300
TAFGDV
TAF
KGDV 162323Z 1700/1724 07010KT P6SM BKN025 OVC035
     FM170300 08010KT P6SM SCT025 OVC035
     FM171000 09011KT P6SM OVC011
     FM171500 14013KT P6SM OVC050
      AMD LTD TO CLD VIS AND WIND=

USA.gov is the U.S. government's official web portal to all federal, state and local government web resources and services.